Time;durP1;ratioP1;P1;durP2;ratioP2;P2;SDS_P1;SDS_P2;PMS_P1;PMS_P2;Temp;Humidity;BMP_temperature;BMP_pressure;BME280_temperature;BME280_humidity;BME280_pressure;Samples;Min_cycle;Max_cycle;Signal;HPM_P1;HPM_P2
2021/06/15 00:00:19;;;;;;;3.08;1.50;;;;;;;25.59;40.54;101504.16;4969379;28;20101;-65
2021/06/15 00:02:46;;;;;;;3.70;1.42;;;;;;;25.57;40.63;101511.59;4972329;28;20050;-65
2021/06/15 00:05:14;;;;;;;3.03;1.35;;;;;;;25.56;40.86;101512.59;4976113;28;20106;-65
2021/06/15 00:07:41;;;;;;;2.33;1.60;;;;;;;25.54;40.63;101519.13;4976253;28;20043;-65
2021/06/15 00:10:12;;;;;;;6.05;2.10;;;;;;;25.53;40.42;101512.91;4975772;28;20519;-65
2021/06/15 00:12:39;;;;;;;2.60;1.75;;;;;;;25.53;40.85;101512.06;4975902;28;20497;-65
2021/06/15 00:15:08;;;;;;;5.05;2.25;;;;;;;25.49;40.85;101513.41;4975298;28;20047;-65
2021/06/15 00:17:35;;;;;;;4.45;2.00;;;;;;;25.47;40.94;101515.41;4966609;28;20050;-65
2021/06/15 00:20:03;;;;;;;3.08;1.90;;;;;;;25.45;41.39;101512.09;4975499;28;20043;-65
2021/06/15 00:22:30;;;;;;;4.63;2.10;;;;;;;25.43;41.48;101518.47;4975418;28;20050;-65
2021/06/15 00:24:56;;;;;;;6.53;1.92;;;;;;;25.43;41.88;101517.59;4975360;28;20059;-65
2021/06/15 00:27:24;;;;;;;4.38;2.55;;;;;;;25.40;42.30;101521.47;4975837;28;20043;-65
2021/06/15 00:29:50;;;;;;;2.83;2.22;;;;;;;25.37;42.35;101524.50;4975695;28;20101;-65
2021/06/15 00:32:17;;;;;;;4.55;2.20;;;;;;;25.35;42.80;101531.84;4975945;28;20058;-65
2021/06/15 00:34:45;;;;;;;5.97;1.88;;;;;;;25.33;42.86;101525.81;4975402;28;20047;-65
2021/06/15 00:37:12;;;;;;;5.18;2.00;;;;;;;25.33;42.91;101528.50;4975374;28;20179;-66
2021/06/15 00:39:39;;;;;;;3.55;2.08;;;;;;;25.30;42.91;101526.13;4975332;28;20047;-64
2021/06/15 00:42:06;;;;;;;5.35;2.08;;;;;;;25.28;42.83;101530.84;4975125;28;20046;-65
2021/06/15 00:44:34;;;;;;;4.00;2.33;;;;;;;25.27;43.11;101529.16;4975348;28;20053;-64
2021/06/15 00:47:02;;;;;;;4.50;1.80;;;;;;;25.27;43.01;101540.72;4975140;28;20050;-65
2021/06/15 00:49:35;;;;;;;3.67;2.00;;;;;;;25.25;42.94;101529.31;4985872;28;20046;-65
2021/06/15 00:52:04;;;;;;;4.90;2.20;;;;;;;25.24;42.92;101526.78;4974254;28;20098;-65
2021/06/15 00:54:30;;;;;;;5.30;2.30;;;;;;;25.23;43.00;101530.47;4975225;28;20409;-65
2021/06/15 00:56:57;;;;;;;4.38;2.20;;;;;;;25.22;42.78;101543.06;4974689;28;20263;-64
2021/06/15 00:59:24;;;;;;;2.17;1.90;;;;;;;25.21;42.96;101532.50;4974450;28;20043;-65
2021/06/15 01:01:51;;;;;;;4.20;2.28;;;;;;;25.20;43.05;101534.31;4974673;28;20047;-65
2021/06/15 01:04:18;;;;;;;3.70;2.08;;;;;;;25.19;43.08;101535.34;4974955;28;20051;-64
2021/06/15 01:07:11;;;;;;;3.97;2.13;;;;;;;25.18;43.00;101540.84;4973801;28;20086;-65
2021/06/15 01:10:09;;;;;;;5.35;2.33;;;;;;;25.18;42.91;101532.78;4974836;28;20047;-65
2021/06/15 01:13:07;;;;;;;4.18;2.22;;;;;;;25.17;42.98;101542.72;4980462;28;20058;-65
2021/06/15 01:15:42;;;;;;;4.28;2.90;;;;;;;25.16;42.92;101543.72;4974686;28;20058;-64
2021/06/15 01:18:13;;;;;;;;;;;;;;;25.15;43.00;101542.03;4974748;28;20047;-65
2021/06/15 01:20:53;;;;;;;3.97;2.25;;;;;;;25.16;43.07;101540.19;4974716;28;20288;-64
2021/06/15 01:23:29;;;;;;;3.75;2.50;;;;;;;25.14;43.20;101539.50;4973628;28;20047;-65
2021/06/15 01:26:00;;;;;;;2.67;2.20;;;;;;;25.13;43.10;101544.06;4974341;28;20054;-65
2021/06/15 01:28:31;;;;;;;5.00;2.40;;;;;;;25.12;43.20;101539.69;4974397;28;20050;-65
2021/06/15 01:31:24;;;;;;;6.78;2.70;;;;;;;25.11;43.29;101535.31;4974366;28;20046;-64
2021/06/15 01:33:56;;;;;;;5.30;2.50;;;;;;;25.10;43.22;101525.56;4961560;28;20101;-65
2021/06/15 01:36:27;;;;;;;4.97;2.80;;;;;;;25.09;43.51;101540.84;4974534;28;20046;-65
2021/06/15 01:38:56;;;;;;;4.18;3.00;;;;;;;25.08;43.44;101543.69;4979706;28;20061;-65
2021/06/15 01:41:45;;;;;;;4.00;2.53;;;;;;;25.07;43.13;101540.16;4981356;28;20047;-65
2021/06/15 01:44:14;;;;;;;4.03;2.72;;;;;;;25.06;43.08;101540.31;4974226;28;20042;-66
2021/06/15 01:46:50;;;;;;;3.97;2.47;;;;;;;25.04;43.12;101543.19;4974065;28;20050;-65
2021/06/15 01:49:20;;;;;;;3.25;2.33;;;;;;;25.03;43.29;101543.34;4974247;28;20046;-65
2021/06/15 01:51:49;;;;;;;5.38;2.80;;;;;;;25.02;43.23;101545.19;4974124;28;20098;-65
2021/06/15 01:54:22;;;;;;;3.92;2.47;;;;;;;25.01;43.20;101537.28;4976073;28;20058;-65
2021/06/15 01:56:52;;;;;;;4.40;2.78;;;;;;;25.00;43.28;101540.97;4979899;28;20102;-65
2021/06/15 01:59:23;;;;;;;4.03;2.53;;;;;;;24.99;43.20;101542.84;4973978;28;20515;-65
2021/06/15 02:01:57;;;;;;;6.10;2.40;;;;;;;24.97;42.66;101544.00;4973844;28;20139;-65
2021/06/15 02:04:26;;;;;;;4.00;2.40;;;;;;;24.95;42.74;101546.84;4973816;28;20050;-65
2021/06/15 02:06:53;;;;;;;4.85;2.58;;;;;;;24.93;42.88;101552.38;4973840;28;20054;-65
2021/06/15 02:09:21;;;;;;;4.03;2.25;;;;;;;24.92;42.67;101547.16;4973472;28;20042;-65
2021/06/15 02:11:49;;;;;;;5.00;2.83;;;;;;;24.91;42.64;101545.47;4976378;28;20547;-66
2021/06/15 02:14:20;;;;;;;5.82;2.20;;;;;;;24.91;42.35;101545.47;4980063;28;20105;-66
2021/06/15 02:16:49;;;;;;;4.00;2.60;;;;;;;24.89;42.36;101545.66;4973387;28;20412;-65
2021/06/15 02:19:24;;;;;;;5.03;2.50;;;;;;;24.87;42.72;101547.63;4973617;28;20046;-65
2021/06/15 02:22:07;;;;;;;7.32;2.75;;;;;;;24.86;42.40;101548.66;4973321;28;20053;-65
2021/06/15 02:24:44;;;;;;;4.07;2.20;;;;;;;24.85;42.38;101546.97;4973300;28;20046;-65
2021/06/15 02:27:17;;;;;;;4.55;2.13;;;;;;;24.86;42.61;101545.13;4973839;28;20046;-65
2021/06/15 02:29:45;;;;;;;2.90;2.20;;;;;;;24.85;42.46;101546.13;4977954;28;20042;-65
2021/06/15 02:32:15;;;;;;;3.75;2.45;;;;;;;24.83;42.44;101542.78;4973534;28;20135;-65
2021/06/15 02:34:48;;;;;;;5.47;2.35;;;;;;;24.80;42.46;101549.31;4973627;28;20055;-65
2021/06/15 02:37:21;;;;;;;3.55;2.17;;;;;;;24.80;42.64;101551.13;4973678;28;20043;-65
2021/06/15 02:39:49;;;;;;;3.67;2.22;;;;;;;24.77;42.40;101550.47;4973493;28;20046;-65
2021/06/15 02:42:19;;;;;;;4.57;2.50;;;;;;;24.77;42.54;101544.25;4973397;28;20046;-65
2021/06/15 02:44:47;;;;;;;4.15;2.38;;;;;;;24.75;42.53;101554.31;4973268;28;20043;-64
2021/06/15 02:47:14;;;;;;;4.90;2.30;;;;;;;24.74;42.63;101548.09;4972155;28;20050;-65
2021/06/15 02:49:48;;;;;;;3.28;2.50;;;;;;;24.73;42.60;101559.00;4973399;28;20409;-65
2021/06/15 02:52:33;;;;;;;5.60;2.83;;;;;;;24.71;42.88;101555.63;4973068;28;20043;-65
2021/06/15 02:55:13;;;;;;;5.82;2.78;;;;;;;24.70;42.83;101551.28;4973232;28;20047;-65
2021/06/15 02:57:39;;;;;;;3.10;2.60;;;;;;;24.68;42.83;101550.59;4973218;28;20497;-64
2021/06/15 03:00:08;;;;;;;5.78;2.92;;;;;;;24.67;42.75;101554.25;4971943;28;20094;-65
2021/06/15 03:02:35;;;;;;;2.92;2.40;;;;;;;24.64;42.60;101557.25;4969906;28;20050;-65
2021/06/15 03:05:17;;;;;;;2.75;2.20;;;;;;;24.63;42.51;101559.06;4974771;28;20043;-65
2021/06/15 03:07:45;;;;;;;3.38;2.25;;;;;;;24.61;42.69;101569.16;4969851;28;20054;-64
2021/06/15 03:10:13;;;;;;;4.53;2.47;;;;;;;24.58;42.68;101575.66;4969710;28;20051;-65
2021/06/15 03:12:59;;;;;;;4.75;2.10;;;;;;;24.58;42.72;101570.31;4970040;28;20413;-65
2021/06/15 03:15:30;;;;;;;;;;;;;;;24.56;42.66;101569.63;4970359;28;20046;-65
2021/06/15 03:18:10;;;;;;;4.90;2.10;;;;;;;24.56;42.48;101566.94;4969453;28;20368;-65
2021/06/15 03:20:39;;;;;;;3.63;2.15;;;;;;;24.55;42.36;101575.97;4969577;28;20053;-64
2021/06/15 03:23:14;;;;;;;3.30;2.20;;;;;;;24.53;42.50;101569.94;4973163;28;20055;-65
2021/06/15 03:25:41;;;;;;;2.40;2.13;;;;;;;24.53;42.45;101572.63;4973551;28;20542;-65
2021/06/15 03:28:15;;;;;;;4.10;2.10;;;;;;;24.53;42.23;101571.75;4973148;28;20488;-64
2021/06/15 03:30:43;;;;;;;5.07;2.33;;;;;;;24.52;42.22;101575.44;4973364;28;20412;-65
2021/06/15 03:33:15;;;;;;;3.47;2.25;;;;;;;24.50;42.05;101572.09;4973069;28;20051;-65
2021/06/15 03:35:46;;;;;;;5.47;2.20;;;;;;;24.48;42.30;101566.03;4980530;28;20142;-64
2021/06/15 03:38:15;;;;;;;5.90;2.67;;;;;;;24.45;42.35;101570.75;4978260;28;20428;-64
2021/06/15 03:40:48;;;;;;;4.72;2.40;;;;;;;24.46;42.35;101571.56;4973025;28;20043;-65
2021/06/15 03:43:18;;;;;;;3.88;2.35;;;;;;;24.44;41.97;101577.09;4973134;28;20055;-65
2021/06/15 03:46:00;;;;;;;5.75;2.03;;;;;;;24.43;42.09;101577.25;4973303;28;20063;-64
2021/06/15 03:48:29;;;;;;;3.38;2.00;;;;;;;24.42;41.90;101575.56;4973162;28;20050;-64
2021/06/15 03:50:57;;;;;;;3.92;2.05;;;;;;;24.41;42.03;101582.75;4973223;28;20047;-65
2021/06/15 03:53:30;;;;;;;5.25;2.13;;;;;;;24.41;42.03;101581.94;4978251;28;20046;-64
2021/06/15 03:56:00;;;;;;;4.60;2.55;;;;;;;24.41;42.29;101584.63;4973051;28;20109;-65
2021/06/15 03:58:27;;;;;;;3.45;1.70;;;;;;;24.41;42.20;101584.63;4973145;28;20124;-64
2021/06/15 04:00:55;;;;;;;4.22;1.98;;;;;;;24.40;42.02;101581.06;4972856;28;20051;-64
2021/06/15 04:03:23;;;;;;;4.20;2.08;;;;;;;24.40;42.29;101586.44;4972549;28;20047;-64
2021/06/15 04:05:53;;;;;;;3.65;2.03;;;;;;;24.38;41.93;101584.91;4972521;28;20050;-65
2021/06/15 04:08:21;;;;;;;4.70;1.90;;;;;;;24.39;41.91;101591.97;4981848;28;20058;-65
2021/06/15 04:10:51;;;;;;;4.05;2.35;;;;;;;24.40;42.14;101599.03;4975213;28;20059;-65
2021/06/15 04:13:23;;;;;;;5.03;2.20;;;;;;;24.39;41.94;101595.50;4972275;28;20050;-65
2021/06/15 04:15:51;;;;;;;4.50;2.03;;;;;;;24.39;42.33;101600.03;4972439;28;20098;-64
2021/06/15 04:18:22;;;;;;;4.25;1.88;;;;;;;24.38;42.23;101601.88;4972280;28;20386;-64
2021/06/15 04:20:52;;;;;;;5.50;1.98;;;;;;;24.38;42.38;101609.91;4972439;28;20054;-65
2021/06/15 04:23:26;;;;;;;4.43;1.95;;;;;;;24.40;42.40;101604.38;4972326;28;20047;-64
2021/06/15 04:25:53;;;;;;;4.25;2.00;;;;;;;24.41;42.61;101608.75;4971179;28;20560;-65
2021/06/15 04:28:20;;;;;;;4.30;1.90;;;;;;;24.42;42.71;101602.41;4972222;28;20105;-65
2021/06/15 04:30:49;;;;;;;8.90;2.35;;;;;;;24.44;42.92;101608.44;4972144;28;20047;-65
2021/06/15 04:33:21;;;;;;;5.03;2.10;;;;;;;24.45;42.79;101613.66;4970482;28;20051;-64
2021/06/15 04:35:51;;;;;;;2.45;2.00;;;;;;;24.45;43.07;101613.66;4972250;28;20089;-65
2021/06/15 04:38:29;;;;;;;4.28;1.77;;;;;;;24.46;42.91;101615.31;4972105;28;20046;-64
2021/06/15 04:41:05;;;;;;;5.30;2.20;;;;;;;24.48;42.79;101617.88;4971085;28;20059;-65
2021/06/15 04:43:39;;;;;;;4.80;2.08;;;;;;;24.50;42.83;101621.22;4972166;28;20066;-64
2021/06/15 04:46:30;;;;;;;3.20;2.10;;;;;;;24.51;43.11;101614.03;4971790;28;20059;-64
2021/06/15 04:49:05;;;;;;;2.70;2.05;;;;;;;24.53;42.99;101626.28;4971803;28;20047;-64
2021/06/15 04:51:32;;;;;;;3.30;1.90;;;;;;;24.54;43.14;101625.28;4971899;28;20074;-65
2021/06/15 04:54:01;;;;;;;3.67;1.85;;;;;;;24.55;43.14;101623.44;4971680;28;20519;-64
2021/06/15 04:56:29;;;;;;;4.35;2.00;;;;;;;24.55;43.12;101624.28;4979671;28;20054;-65
2021/06/15 04:59:01;;;;;;;5.70;1.80;;;;;;;24.56;43.17;101634.03;4971489;28;20047;-65
2021/06/15 05:01:29;;;;;;;5.75;2.05;;;;;;;24.58;43.39;101631.16;4971892;28;20051;-65
2021/06/15 05:03:56;;;;;;;7.45;2.13;;;;;;;24.59;43.57;101627.50;4970933;28;20105;-65
2021/06/15 05:06:23;;;;;;;3.45;1.90;;;;;;;24.60;43.66;101635.38;4971916;28;20461;-65
2021/06/15 05:09:02;;;;;;;5.50;2.00;;;;;;;24.64;43.99;101637.75;4971339;28;20094;-65
2021/06/15 05:11:34;;;;;;;4.68;2.10;;;;;;;24.68;43.91;101639.97;4978919;28;20390;-65
2021/06/15 05:14:14;;;;;;;4.63;1.88;;;;;;;24.72;43.85;101646.75;4971818;28;20076;-64
2021/06/15 05:16:51;;;;;;;4.13;2.22;;;;;;;24.75;44.00;101645.59;4971333;28;20078;-65
2021/06/15 05:19:18;;;;;;;4.47;1.80;;;;;;;24.75;43.92;101640.22;4971162;28;20552;-65
2021/06/15 05:22:03;;;;;;;6.72;2.28;;;;;;;24.72;44.02;101640.50;4970970;28;20496;-65
2021/06/15 05:24:51;;;;;;;3.20;1.67;;;;;;;24.68;43.94;101641.84;4971513;28;20058;-65
2021/06/15 05:27:24;;;;;;;4.50;1.70;;;;;;;24.67;44.17;101642.84;4971369;28;20062;-65
2021/06/15 05:29:52;;;;;;;5.68;1.88;;;;;;;24.65;44.47;101642.16;4957083;28;20510;-65
2021/06/15 05:32:25;;;;;;;3.35;2.20;;;;;;;24.65;44.49;101645.69;4971292;28;20097;-65
2021/06/15 05:34:52;;;;;;;5.30;2.00;;;;;;;24.68;44.47;101652.56;4970882;28;20051;-65
2021/06/15 05:37:18;;;;;;;2.70;1.60;;;;;;;24.69;44.53;101649.72;4971146;28;20043;-65
2021/06/15 05:39:45;;;;;;;4.53;1.90;;;;;;;24.71;44.44;101647.75;4970858;28;20051;-65
2021/06/15 05:42:12;;;;;;;4.15;1.85;;;;;;;24.73;44.58;101652.94;4970801;28;20093;-64
2021/06/15 05:44:43;;;;;;;4.70;2.17;;;;;;;24.74;44.54;101655.47;4981124;28;20050;-64
2021/06/15 05:47:11;;;;;;;4.15;1.92;;;;;;;24.77;44.60;101655.16;4972160;28;20485;-65
2021/06/15 05:49:37;;;;;;;4.20;1.85;;;;;;;24.80;44.55;101645.09;4970589;28;20440;-64
2021/06/15 05:52:07;;;;;;;4.35;2.00;;;;;;;24.83;44.59;101656.34;4987207;28;20062;-64
2021/06/15 05:54:36;;;;;;;4.55;1.73;;;;;;;24.86;44.42;101657.88;4989445;28;20054;-65
2021/06/15 05:57:04;;;;;;;3.25;2.08;;;;;;;24.89;44.51;101665.63;4989239;28;20046;-64
2021/06/15 05:59:30;;;;;;;3.95;1.67;;;;;;;24.91;44.57;101667.16;4989775;28;20068;-64
2021/06/15 06:01:58;;;;;;;5.20;2.25;;;;;;;24.93;44.63;101661.63;4988339;28;20054;-64
2021/06/15 06:04:31;;;;;;;5.07;1.80;;;;;;;24.96;44.87;101663.16;4989127;28;20121;-64
2021/06/15 06:09:43;;;;;;;3.10;1.67;;;;;;;24.99;44.67;101666.34;4985340;28;20094;-64
2021/06/15 06:12:10;;;;;;;4.95;1.90;;;;;;;25.02;44.88;101666.03;4969787;28;20043;-65
2021/06/15 06:14:37;;;;;;;4.93;2.00;;;;;;;25.06;45.04;101666.56;4969577;28;20522;-64
2021/06/15 06:17:07;;;;;;;2.75;1.58;;;;;;;25.08;44.93;101662.69;4968685;28;20142;-64
2021/06/15 06:19:34;;;;;;;3.60;1.58;;;;;;;25.11;45.44;101666.91;4967977;28;20425;-64
2021/06/15 06:22:01;;;;;;;4.55;1.50;;;;;;;25.13;45.26;101666.75;4969925;28;20698;-64
2021/06/15 06:24:28;;;;;;;4.65;1.60;;;;;;;25.14;45.33;101666.59;4969270;28;20046;-64
2021/06/15 06:26:55;;;;;;;3.67;1.42;;;;;;;25.14;44.95;101661.25;4968997;28;20507;-64
2021/06/15 06:29:23;;;;;;;4.20;1.65;;;;;;;25.15;44.36;101670.94;4969751;28;20051;-64
2021/06/15 06:31:49;;;;;;;6.90;1.77;;;;;;;25.17;44.31;101666.28;4965943;28;20398;-64
2021/06/15 06:34:16;;;;;;;3.83;1.48;;;;;;;25.24;44.68;101679.91;4963377;28;20098;-64
2021/06/15 06:36:43;;;;;;;3.80;2.10;;;;;;;25.30;44.51;101673.88;4967974;28;20042;-64
2021/06/15 06:39:10;;;;;;;8.30;2.05;;;;;;;25.40;44.37;101666.56;4968509;28;20053;-64
2021/06/15 06:41:37;;;;;;;5.03;1.98;;;;;;;25.51;44.18;101668.13;4969594;28;20559;-65
2021/06/15 06:44:05;;;;;;;2.47;1.30;;;;;;;25.59;43.93;101664.63;4977977;28;20074;-64
2021/06/15 06:46:32;;;;;;;2.83;1.33;;;;;;;25.64;43.38;101666.81;4979025;28;20043;-65
2021/06/15 06:48:59;;;;;;;3.08;1.50;;;;;;;25.64;42.89;101669.50;4971872;28;20114;-64
2021/06/15 06:51:26;;;;;;;8.07;1.55;;;;;;;25.66;43.16;101662.09;4970224;28;20125;-63
2021/06/15 06:53:52;;;;;;;4.97;1.67;;;;;;;25.62;42.97;101661.59;4969682;28;20042;-64
2021/06/15 06:56:20;;;;;;;3.80;1.50;;;;;;;25.55;42.99;101664.09;4970911;28;20555;-63
2021/06/15 06:58:47;;;;;;;4.43;1.73;;;;;;;25.50;42.75;101666.44;4972649;28;20051;-64
2021/06/15 07:01:14;;;;;;;5.25;1.60;;;;;;;25.49;42.67;101666.59;4972705;28;20051;-65
2021/06/15 07:03:41;;;;;;;2.90;1.58;;;;;;;25.50;42.10;101662.91;4972017;28;20081;-64
2021/06/15 07:06:08;;;;;;;3.75;1.63;;;;;;;25.53;42.23;101663.41;4972971;28;20049;-63
2021/06/15 07:08:35;;;;;;;6.32;1.67;;;;;;;25.57;42.13;101667.47;4975881;28;20054;-64
2021/06/15 07:11:02;;;;;;;3.15;1.20;;;;;;;25.60;41.95;101658.25;4980726;28;20097;-63
2021/06/15 07:13:28;;;;;;;6.57;2.28;;;;;;;25.65;41.75;101661.28;4973595;28;20055;-62
2021/06/15 07:15:55;;;;;;;3.10;1.52;;;;;;;25.72;42.07;101659.59;4972763;28;20137;-65
2021/06/15 07:18:22;;;;;;;5.03;1.73;;;;;;;25.80;42.14;101664.16;4971793;28;20038;-64
2021/06/15 07:20:48;;;;;;;2.45;1.45;;;;;;;25.89;42.18;101654.25;4972698;28;20493;-63
2021/06/15 07:23:15;;;;;;;4.07;1.52;;;;;;;25.91;41.56;101666.53;4972763;28;20062;-65
2021/06/15 07:25:42;;;;;;;2.78;1.42;;;;;;;25.94;40.67;101659.13;4972657;28;20050;-65
2021/06/15 07:28:09;;;;;;;4.22;1.50;;;;;;;25.98;40.19;101663.16;4969331;28;20051;-63
2021/06/15 07:30:36;;;;;;;3.03;1.30;;;;;;;26.05;40.03;101659.66;4973140;28;20053;-64
2021/06/15 07:33:12;;;;;;;4.15;1.20;;;;;;;26.14;39.89;101652.44;4971033;28;20082;-64
2021/06/15 07:35:39;;;;;;;3.60;1.75;;;;;;;26.24;39.72;101658.53;4960731;28;20123;-63
2021/06/15 07:38:06;;;;;;;2.90;1.40;;;;;;;26.35;39.48;101657.34;4972508;28;20050;-63
2021/06/15 07:40:33;;;;;;;2.83;1.63;;;;;;;26.41;39.50;101658.53;4972088;28;20047;-64
2021/06/15 07:43:00;;;;;;;4.15;1.52;;;;;;;26.43;39.20;101659.16;4977620;28;20101;-64
2021/06/15 07:45:30;;;;;;;3.85;1.70;;;;;;;26.44;38.89;101655.47;4974552;28;20053;-64
2021/06/15 07:47:57;;;;;;;5.20;1.40;;;;;;;26.46;38.20;101658.84;4975399;28;20093;-64
2021/06/15 07:50:24;;;;;;;3.10;1.25;;;;;;;26.48;37.99;101658.69;4970645;28;20497;-64
2021/06/15 07:52:51;;;;;;;4.03;1.83;;;;;;;26.51;37.61;101647.56;4974395;28;20047;-64
2021/06/15 07:55:18;;;;;;;4.72;1.40;;;;;;;26.53;37.41;101662.53;4978243;28;20046;-65
2021/06/15 07:57:47;;;;;;;3.13;1.23;;;;;;;26.59;37.83;101658.31;4974417;28;20054;-65
2021/06/15 08:00:16;;;;;;;5.25;1.73;;;;;;;26.67;38.57;101654.78;4978982;28;20046;-65
2021/06/15 08:02:44;;;;;;;4.00;1.40;;;;;;;26.68;37.79;101649.22;4974388;28;20453;-64
2021/06/15 08:05:12;;;;;;;3.53;1.88;;;;;;;26.66;37.77;101656.59;4977031;28;20057;-65
2021/06/15 08:07:39;;;;;;;4.53;1.45;;;;;;;26.67;38.04;101654.78;4975657;28;20042;-64
2021/06/15 08:10:07;;;;;;;9.32;2.05;;;;;;;26.67;37.95;101663.69;4975073;28;20061;-64
2021/06/15 08:12:34;;;;;;;3.20;1.63;;;;;;;26.63;37.74;101650.75;4972028;28;20078;-64
2021/06/15 08:15:01;;;;;;;6.15;1.58;;;;;;;26.62;37.67;101647.19;4971188;28;20193;-64
2021/06/15 08:17:27;;;;;;;3.88;1.50;;;;;;;26.71;37.18;101648.84;4972480;28;20077;-65
2021/06/15 08:19:54;;;;;;;6.70;1.88;;;;;;;26.87;37.50;101644.50;4972016;28;20046;-64
2021/06/15 08:22:21;;;;;;;4.05;1.33;;;;;;;27.00;37.34;101644.78;4972074;28;20051;-64
2021/06/15 08:24:47;;;;;;;5.07;1.60;;;;;;;27.11;37.02;101640.88;4971809;28;20058;-65
2021/06/15 08:27:15;;;;;;;4.20;1.88;;;;;;;27.21;37.26;101636.09;4972173;28;20532;-65
2021/06/15 08:29:42;;;;;;;4.35;1.83;;;;;;;27.28;36.92;101633.53;4971866;28;20057;-65
2021/06/15 08:32:09;;;;;;;3.95;1.63;;;;;;;27.30;36.63;101628.81;4975841;28;20055;-64
2021/06/15 08:34:37;;;;;;;5.10;1.88;;;;;;;27.38;36.68;101631.47;4971974;28;20054;-65
2021/06/15 08:37:03;;;;;;;3.83;1.67;;;;;;;27.48;36.88;101627.75;4971454;28;20043;-65
2021/06/15 08:39:30;;;;;;;4.43;1.60;;;;;;;27.58;36.67;101627.50;4972224;28;20046;-65
2021/06/15 08:41:57;;;;;;;3.20;1.80;;;;;;;27.61;36.38;101630.69;4971470;28;20047;-65
2021/06/15 08:44:23;;;;;;;5.03;1.77;;;;;;;27.66;36.35;101627.47;4971813;28;20047;-65
2021/06/15 08:46:51;;;;;;;3.30;1.58;;;;;;;27.69;35.93;101627.97;4971414;28;20050;-65
2021/06/15 08:49:18;;;;;;;4.00;1.52;;;;;;;27.77;35.88;101618.97;4980854;28;20444;-65
2021/06/15 08:51:45;;;;;;;2.97;1.50;;;;;;;27.83;35.82;101622.78;4971836;28;20054;-65
2021/06/15 08:54:17;;;;;;;4.93;1.85;;;;;;;27.88;35.76;101624.97;4971728;28;20049;-65
2021/06/15 08:56:45;;;;;;;4.25;1.40;;;;;;;27.89;35.70;101623.94;4971623;28;20057;-65
2021/06/15 08:59:14;;;;;;;2.85;1.48;;;;;;;27.98;35.71;101629.06;4971353;28;20101;-64
2021/06/15 09:01:43;;;;;;;5.10;1.48;;;;;;;28.07;35.37;101623.66;4971152;28;20068;-65
2021/06/15 09:04:10;;;;;;;3.67;1.27;;;;;;;28.17;34.95;101614.28;4969902;28;20050;-65
2021/06/15 09:06:36;;;;;;;3.40;1.60;;;;;;;28.27;35.09;101611.31;4971713;28;20413;-65
2021/06/15 09:09:04;;;;;;;3.15;1.50;;;;;;;28.38;34.93;101612.75;4971295;28;20408;-64
2021/06/15 09:11:57;;;;;;;5.75;1.63;;;;;;;28.48;34.90;101615.16;4971021;28;20066;-65
2021/06/15 09:14:37;;;;;;;3.72;1.90;;;;;;;28.59;35.18;101608.47;4971066;28;20053;-65
2021/06/15 09:17:05;;;;;;;5.63;1.95;;;;;;;28.72;35.10;101607.84;4971137;28;20050;-65
2021/06/15 09:19:37;;;;;;;5.68;2.90;;;;;;;28.82;34.76;101616.50;4979088;28;20097;-65
2021/06/15 09:22:05;;;;;;;3.75;1.83;;;;;;;28.87;34.24;101614.09;4970743;28;20132;-65
2021/06/15 09:24:32;;;;;;;3.28;2.00;;;;;;;28.92;33.95;101610.84;4970622;28;20134;-65
2021/06/15 09:27:06;;;;;;;4.78;1.67;;;;;;;29.01;33.93;101604.28;4970803;28;20051;-65
2021/06/15 09:29:38;;;;;;;6.80;2.10;;;;;;;29.10;33.83;101602.31;4970937;28;20053;-65
2021/06/15 09:32:08;;;;;;;4.30;1.80;;;;;;;29.15;33.63;101591.78;4956840;28;20390;-65
2021/06/15 09:34:56;;;;;;;5.32;1.45;;;;;;;29.22;32.58;101595.41;4975685;28;20042;-65
2021/06/15 09:37:38;;;;;;;3.92;1.63;;;;;;;29.26;31.08;101595.88;4971118;28;20074;-65
2021/06/15 09:40:17;;;;;;;5.13;1.83;;;;;;;29.25;30.33;101600.41;4970604;28;20066;-65
2021/06/15 09:42:55;;;;;;;5.95;1.80;;;;;;;29.26;30.10;101594.00;4970475;28;20054;-65
2021/06/15 09:45:32;;;;;;;4.28;1.85;;;;;;;29.34;30.63;101594.94;4970783;28;20097;-65
2021/06/15 09:48:24;;;;;;;2.38;1.30;;;;;;;29.43;30.47;101591.94;4970559;28;20106;-65
2021/06/15 09:50:59;;;;;;;5.60;1.95;;;;;;;29.57;31.09;101594.75;4964281;28;20433;-65
2021/06/15 09:53:28;;;;;;;;;;;;;;;29.66;31.62;101599.00;4965235;28;20137;-65
2021/06/15 09:55:57;;;;;;;4.82;1.38;;;;;;;29.79;30.93;101591.03;4970392;28;20300;-65
2021/06/15 09:58:46;;;;;;;4.85;1.65;;;;;;;29.88;30.94;101599.88;4970101;28;20051;-65
2021/06/15 10:01:35;;;;;;;2.83;1.55;;;;;;;29.92;30.24;101590.34;4970273;28;20042;-65
2021/06/15 10:04:20;;;;;;;1.90;1.30;;;;;;;30.02;29.97;101587.31;4977702;28;20074;-66
2021/06/15 10:06:47;;;;;;;3.83;1.73;;;;;;;30.09;29.94;101587.34;4967548;28;20051;-66
2021/06/15 10:09:32;;;;;;;2.47;1.33;;;;;;;30.16;29.74;101585.53;4969645;28;20043;-66
2021/06/15 10:12:00;;;;;;;6.28;2.00;;;;;;;30.29;30.38;101582.91;4969270;28;20114;-65
2021/06/15 10:14:28;;;;;;;3.40;1.33;;;;;;;30.38;30.25;101578.19;4973636;28;20042;-65
2021/06/15 10:16:57;;;;;;;3.58;1.65;;;;;;;30.47;29.54;101570.72;4973068;28;20051;-65
2021/06/15 10:19:26;;;;;;;4.13;1.88;;;;;;;30.55;29.76;101572.47;4976047;28;20417;-65
2021/06/15 10:21:53;;;;;;;2.75;1.48;;;;;;;30.64;30.18;101574.00;4968822;28;20106;-65
2021/06/15 10:24:25;;;;;;;2.50;1.73;;;;;;;30.75;29.76;101565.31;4970120;28;20057;-65
2021/06/15 10:27:00;;;;;;;3.72;1.73;;;;;;;30.87;29.92;101570.16;4973190;28;20054;-65
2021/06/15 10:29:27;;;;;;;2.10;1.65;;;;;;;30.94;29.49;101569.13;4974530;28;20054;-65
2021/06/15 10:31:56;;;;;;;3.30;1.42;;;;;;;30.98;28.72;101569.53;4973637;28;20061;-65
2021/06/15 10:34:46;;;;;;;3.28;1.60;;;;;;;31.07;29.31;101564.81;4972969;28;20394;-65
2021/06/15 10:37:31;;;;;;;4.55;1.73;;;;;;;31.06;29.04;101563.16;4973141;28;20047;-65
2021/06/15 10:40:05;;;;;;;1.63;1.40;;;;;;;31.08;29.01;101561.06;4974023;28;20068;-65
2021/06/15 10:42:33;;;;;;;4.68;1.80;;;;;;;31.21;29.44;101555.69;4973079;28;20050;-65
2021/06/15 10:45:26;;;;;;;4.10;1.60;;;;;;;31.38;29.69;101558.84;4976095;28;20049;-65
2021/06/15 10:48:09;;;;;;;4.93;1.23;;;;;;;31.52;29.97;101554.28;4972519;28;20051;-65
2021/06/15 10:50:48;;;;;;;4.40;1.58;;;;;;;31.67;30.07;101551.41;4972517;28;20053;-65
2021/06/15 10:53:16;;;;;;;3.58;1.88;;;;;;;31.78;29.62;101549.09;4973507;28;20078;-65
2021/06/15 10:55:49;;;;;;;7.65;1.80;;;;;;;31.88;29.57;101547.66;4973732;28;20050;-65
2021/06/15 10:58:38;;;;;;;3.65;1.83;;;;;;;31.85;28.77;101541.81;4973377;28;20051;-65
2021/06/15 11:01:17;;;;;;;7.65;2.20;;;;;;;31.80;29.12;101542.41;4972235;28;20493;-65
2021/06/15 11:03:52;;;;;;;3.78;1.83;;;;;;;31.80;29.70;101528.03;4974558;28;20042;-65
2021/06/15 11:06:27;;;;;;;5.57;1.73;;;;;;;31.81;30.22;101532.38;4962406;28;20492;-66
2021/06/15 11:09:33;;;;;;;3.50;2.25;;;;;;;31.92;30.25;101531.75;4968954;28;20054;-65
2021/06/15 11:12:00;;;;;;;4.47;1.77;;;;;;;32.08;29.47;101528.59;4958764;28;20046;-65
2021/06/15 11:14:28;;;;;;;2.00;1.50;;;;;;;32.18;29.51;101530.06;4969649;28;20158;-62
2021/06/15 11:16:59;;;;;;;6.38;1.80;;;;;;;31.95;29.69;101519.63;4969518;28;20078;-65
2021/06/15 11:19:30;;;;;;;3.75;1.58;;;;;;;31.84;30.05;101521.94;4969532;28;20518;-65
2021/06/15 11:22:01;;;;;;;4.38;1.75;;;;;;;31.77;29.96;101517.56;4969492;28;20102;-66
2021/06/15 11:24:39;;;;;;;7.10;2.10;;;;;;;31.60;29.84;101515.25;4967938;28;20465;-66
2021/06/15 11:27:20;;;;;;;4.70;1.90;;;;;;;31.54;30.38;101505.22;4956105;28;20587;-67
2021/06/15 11:29:48;;;;;;;4.85;1.70;;;;;;;31.54;30.66;101506.09;4969148;28;20046;-66
2021/06/15 11:32:33;;;;;;;6.90;2.30;;;;;;;31.59;30.66;101503.56;4968853;28;20051;-67
2021/06/15 11:35:02;;;;;;;3.58;1.90;;;;;;;31.47;30.04;101502.53;4970574;28;20126;-65
2021/06/15 11:37:49;;;;;;;4.47;1.60;;;;;;;31.37;30.02;101493.97;4969523;28;20065;-67
2021/06/15 11:40:22;;;;;;;3.17;2.10;;;;;;;31.37;30.17;101493.97;4969166;28;20409;-67
2021/06/15 11:43:17;;;;;;;2.85;1.75;;;;;;;31.38;30.60;101490.22;4968192;28;20046;-67
2021/06/15 11:45:47;;;;;;;3.53;2.00;;;;;;;31.34;30.38;101487.06;4962783;28;20408;-67
2021/06/15 11:51:08;;;;;;;4.70;2.15;;;;;;;31.41;31.45;101481.66;4972686;28;20081;-67